createdAt,value
2022-11-22T00:00:51.902Z,99017.59
2022-11-22T00:05:55.685Z,99014.00
2022-11-22T00:10:59.493Z,99020.78
2022-11-22T00:16:05.811Z,99008.53
2022-11-22T00:21:09.726Z,99010.28
2022-11-22T00:26:13.438Z,99004.38
2022-11-22T00:31:18.414Z,99010.94
2022-11-22T00:36:22.185Z,99017.63
2022-11-22T00:41:25.838Z,99016.41
2022-11-22T00:46:30.837Z,99021.31
2022-11-22T00:51:34.522Z,99023.50
2022-11-22T00:56:38.247Z,99031.13
2022-11-22T01:01:43.370Z,99032.50
2022-11-22T01:06:47.154Z,99023.06
2022-11-22T01:11:51.314Z,99024.66
2022-11-22T01:16:56.440Z,99013.44
2022-11-22T01:22:00.095Z,99039.75
2022-11-22T01:27:03.846Z,99026.88
2022-11-22T01:32:08.889Z,99031.88
2022-11-22T01:37:12.725Z,99028.97
2022-11-22T01:42:16.423Z,99028.88
2022-11-22T01:47:25.728Z,99029.66
2022-11-22T01:52:33.549Z,99043.25
2022-11-22T01:57:40.373Z,99046.47
2022-11-22T02:02:47.659Z,99048.91
2022-11-22T02:07:58.105Z,99050.47
2022-11-22T02:13:02.488Z,99059.78
2022-11-22T02:18:07.571Z,99068.34
2022-11-22T02:23:18.999Z,99060.66
2022-11-22T02:28:24.304Z,99063.87
2022-11-22T02:33:28.090Z,99067.22
2022-11-22T02:38:35.639Z,99066.13
2022-11-22T02:43:45.474Z,99075.50
2022-11-22T02:48:49.763Z,99067.47
2022-11-22T02:53:53.664Z,99081.81
2022-11-22T02:58:58.684Z,99078.28
2022-11-22T03:04:02.395Z,99078.28
2022-11-22T03:09:06.174Z,99079.06
2022-11-22T03:14:11.203Z,99066.09
2022-11-22T03:19:15.588Z,99070.09
2022-11-22T03:24:20.202Z,99072.66
2022-11-22T03:29:25.357Z,99073.31
2022-11-22T03:34:29.052Z,99077.41
2022-11-22T03:39:32.922Z,99073.53
2022-11-22T03:44:37.933Z,99079.78
2022-11-22T03:49:42.241Z,99078.59
2022-11-22T03:54:45.943Z,99082.84
2022-11-22T03:59:50.944Z,99091.94
2022-11-22T04:04:54.626Z,99095.06
2022-11-22T04:09:58.322Z,99110.47
2022-11-22T04:15:09.674Z,99106.00
2022-11-22T04:20:34.520Z,99110.06
2022-11-22T04:25:39.749Z,99120.38
2022-11-22T04:31:02.325Z,99123.34
2022-11-22T04:36:11.848Z,99110.34
2022-11-22T04:41:16.934Z,99113.44
2022-11-22T04:46:21.906Z,99121.12
2022-11-22T04:51:43.259Z,99126.06
2022-11-22T04:56:46.972Z,99130.25
2022-11-22T05:01:53.806Z,99121.75
2022-11-22T05:06:57.526Z,99118.25
2022-11-22T05:12:01.170Z,99121.75
2022-11-22T05:17:06.112Z,99125.75
2022-11-22T05:22:09.802Z,99134.84
2022-11-22T05:27:13.551Z,99126.13
2022-11-22T05:32:18.601Z,99127.69
2022-11-22T05:37:22.741Z,99129.50
2022-11-22T05:42:26.477Z,99133.03
2022-11-22T05:47:34.792Z,99129.50
2022-11-22T05:52:38.499Z,99133.78
2022-11-22T05:57:42.193Z,99124.81
2022-11-22T06:02:47.389Z,99124.06
2022-11-22T06:07:51.179Z,99109.53
2022-11-22T06:12:55.269Z,99118.88
2022-11-22T06:18:00.274Z,99123.56
2022-11-22T06:23:03.990Z,99123.13
2022-11-22T06:28:07.797Z,99117.63
2022-11-22T06:33:12.814Z,99135.75
2022-11-22T06:38:16.445Z,99148.72
2022-11-22T06:43:20.315Z,99134.22
2022-11-22T06:48:25.415Z,99145.53
2022-11-22T06:53:46.198Z,99144.88
2022-11-22T06:58:52.919Z,99148.28
2022-11-22T07:03:59.220Z,99150.94
2022-11-22T07:09:05.149Z,99161.91
2022-11-22T07:14:09.587Z,99154.34
2022-11-22T07:19:14.726Z,99155.37
2022-11-22T07:24:18.628Z,99157.13
2022-11-22T07:29:22.281Z,99147.91
2022-11-22T07:34:27.301Z,99151.12
2022-11-22T07:39:31.314Z,99142.88
2022-11-22T07:44:35.210Z,99133.28
2022-11-22T07:49:40.346Z,99151.62
2022-11-22T07:54:44.057Z,99154.81
2022-11-22T07:59:47.880Z,99172.88
2022-11-22T08:04:52.905Z,99162.78
2022-11-22T08:09:56.626Z,99162.13
2022-11-22T08:15:00.321Z,99158.12
2022-11-22T08:20:06.442Z,99156.31
2022-11-22T08:25:13.397Z,99157.94
2022-11-22T08:30:17.149Z,99152.09
2022-11-22T08:35:22.361Z,99169.47
2022-11-22T08:40:26.057Z,99155.91
2022-11-22T08:45:29.797Z,99168.28
2022-11-22T08:50:34.918Z,99173.41
2022-11-22T08:55:38.603Z,99178.53
2022-11-22T09:00:42.998Z,99178.66
2022-11-22T09:11:13.871Z,99189.25
2022-11-22T09:16:20.354Z,99181.16
2022-11-22T09:21:25.496Z,99180.25
2022-11-22T09:26:30.614Z,99186.50
2022-11-22T09:31:34.301Z,99196.91
2022-11-22T09:36:39.358Z,99196.91
2022-11-22T09:42:18.995Z,99196.41
2022-11-22T09:47:33.138Z,99187.88
2022-11-22T09:52:43.947Z,99192.13
2022-11-22T09:57:51.562Z,99191.47
2022-11-22T10:03:01.168Z,99193.22
2022-11-22T10:08:20.630Z,99186.53
2022-11-22T10:13:32.911Z,99180.88
2022-11-22T10:18:42.301Z,99182.78
2022-11-22T10:23:48.656Z,99171.06
2022-11-22T10:29:05.471Z,99176.19
2022-11-22T10:34:19.064Z,99176.22
2022-11-22T10:39:40.026Z,99179.28
2022-11-22T10:44:51.969Z,99175.59
2022-11-22T10:50:02.094Z,99176.91
2022-11-22T10:55:23.584Z,99164.81
2022-11-22T11:00:30.414Z,99159.59
2022-11-22T11:06:00.802Z,99160.69
2022-11-22T11:11:06.735Z,99157.25
2022-11-22T11:16:13.857Z,99158.25
2022-11-22T11:21:17.634Z,99155.03
2022-11-22T11:26:29.890Z,99162.66
2022-11-22T11:31:43.877Z,99146.47
2022-11-22T11:36:47.840Z,99150.75
2022-11-22T11:41:52.880Z,99137.22
2022-11-22T11:46:56.529Z,99141.59
2022-11-22T11:52:02.685Z,99127.88
2022-11-22T11:57:12.480Z,99128.16
2022-11-22T12:02:20.677Z,99128.69
2022-11-22T12:07:25.767Z,99133.84
2022-11-22T12:12:44.083Z,99132.09
2022-11-22T12:17:53.894Z,99129.63
2022-11-22T12:23:11.433Z,99121.31
2022-11-22T12:28:20.078Z,99113.66
2022-11-22T12:33:30.786Z,99112.19
2022-11-22T12:38:38.702Z,99107.63
2022-11-22T12:43:48.070Z,99107.72
2022-11-22T12:48:56.290Z,99110.25
2022-11-22T12:54:03.201Z,99094.41
2022-11-22T12:59:21.182Z,99086.66
2022-11-22T13:04:31.959Z,99085.97
2022-11-22T13:09:39.641Z,99097.19
2022-11-22T13:14:48.649Z,99090.25
2022-11-22T13:19:56.159Z,99092.03
2022-11-22T13:25:22.352Z,99089.91
2022-11-22T13:30:28.910Z,99093.37
2022-11-22T13:35:33.905Z,99089.75
2022-11-22T13:40:46.232Z,99096.53
2022-11-22T13:45:52.659Z,99109.25
2022-11-22T13:51:03.571Z,99113.59
2022-11-22T13:56:43.442Z,99121.88
2022-11-22T14:02:04.629Z,99115.56
2022-11-22T14:07:31.420Z,99107.94
2022-11-22T14:12:55.363Z,99102.78
2022-11-22T14:18:16.483Z,99092.50
2022-11-22T14:23:28.995Z,99093.22
2022-11-22T14:28:53.929Z,99086.44
2022-11-22T14:34:24.115Z,99088.22
2022-11-22T14:40:02.555Z,99097.72
2022-11-22T14:45:22.702Z,99090.75
2022-11-22T14:50:31.868Z,99110.53
2022-11-22T14:55:36.432Z,99116.28
2022-11-22T15:00:58.253Z,99118.22
2022-11-22T15:09:12.137Z,99122.44
2022-11-22T15:12:02.505Z,99118.09
2022-11-22T16:00:45.131Z,99135.34
2022-11-22T16:06:06.187Z,99147.47
2022-11-22T16:11:21.161Z,99148.50
2022-11-22T16:16:28.120Z,99156.19
2022-11-22T16:21:31.938Z,99152.00
2022-11-22T16:26:37.125Z,99153.81
2022-11-22T16:31:41.501Z,99155.59
2022-11-22T16:36:45.263Z,99154.72
2022-11-22T16:41:50.410Z,99163.28
2022-11-22T16:46:54.149Z,99159.81
2022-11-22T16:51:57.998Z,99155.28
2022-11-22T16:57:03.610Z,99161.50
2022-11-22T17:02:11.555Z,99170.09
2022-11-22T17:07:16.913Z,99160.84
2022-11-22T17:12:27.858Z,99173.72
2022-11-22T17:17:34.444Z,99176.22
2022-11-22T17:22:39.384Z,99182.44
2022-11-22T17:27:48.033Z,99181.78
2022-11-22T17:32:55.214Z,99186.88
2022-11-22T17:37:59.339Z,99187.94
2022-11-22T17:43:04.622Z,99184.66
2022-11-22T17:48:08.327Z,99183.88
2022-11-22T17:53:12.021Z,99186.44
2022-11-22T17:58:17.162Z,99188.16
2022-11-22T18:03:20.931Z,99184.94
2022-11-22T18:08:24.682Z,99181.53
2022-11-22T18:13:31.941Z,99191.69
2022-11-22T18:18:56.171Z,99207.09
2022-11-22T18:24:01.901Z,99218.88
2022-11-22T18:34:31.582Z,99221.13
2022-11-22T18:39:38.276Z,99231.44
2022-11-22T18:44:43.848Z,99229.84
2022-11-22T18:49:48.191Z,99239.22
2022-11-22T18:54:52.086Z,99239.94
2022-11-22T18:59:57.379Z,99248.72
2022-11-22T19:05:02.123Z,99239.28
2022-11-22T19:10:07.072Z,99247.00
2022-11-22T19:15:12.442Z,99255.59
2022-11-22T19:20:47.485Z,99259.00
2022-11-22T19:25:42.394Z,99268.59
2022-11-22T19:30:47.518Z,99265.31
2022-11-22T19:35:58.307Z,99263.66
2022-11-22T19:41:02.094Z,99261.13
2022-11-22T19:46:07.882Z,99259.44
2022-11-22T19:51:13.673Z,99258.84
2022-11-22T19:56:19.277Z,99250.31
2022-11-22T20:01:27.423Z,99267.38
2022-11-22T20:06:32.393Z,99271.66
2022-11-22T20:11:36.635Z,99274.03
2022-11-22T20:16:42.830Z,99295.47
2022-11-22T20:21:49.496Z,99300.69
2022-11-22T20:26:53.222Z,99299.75
2022-11-22T20:31:59.194Z,99314.31
2022-11-22T20:37:03.432Z,99309.19
2022-11-22T20:42:33.076Z,99313.53
2022-11-22T20:47:33.045Z,99322.03
2022-11-22T20:52:36.758Z,99313.53
2022-11-22T20:57:41.310Z,99327.91
2022-11-22T21:02:46.455Z,99334.03
2022-11-22T21:07:50.272Z,99345.97
2022-11-22T21:12:54.121Z,99346.00
2022-11-22T21:18:23.445Z,99348.62
2022-11-22T21:23:23.626Z,99356.34
2022-11-22T21:28:27.422Z,99360.56
2022-11-22T21:33:33.806Z,99365.91
2022-11-22T21:38:38.570Z,99369.25
2022-11-22T21:43:46.006Z,99372.78
2022-11-22T21:48:56.169Z,99383.22
2022-11-22T21:54:00.453Z,99392.66
2022-11-22T21:59:04.240Z,99390.16
2022-11-22T22:04:09.354Z,99391.87
2022-11-22T22:09:13.181Z,99398.09
2022-11-22T22:14:16.878Z,99398.09
2022-11-22T22:19:21.983Z,99398.87
2022-11-22T22:24:25.763Z,99402.50
2022-11-22T22:29:29.727Z,99406.72
2022-11-22T22:34:36.231Z,99405.91
2022-11-22T22:39:39.997Z,99410.12
2022-11-22T22:44:43.698Z,99422.28
2022-11-22T22:49:48.806Z,99422.16
2022-11-22T22:54:52.486Z,99432.66
2022-11-22T22:59:56.244Z,99432.44
2022-11-22T23:05:01.275Z,99439.28
2022-11-22T23:10:05.503Z,99449.72
2022-11-22T23:15:10.026Z,99453.31
2022-11-22T23:20:15.658Z,99454.16
2022-11-22T23:25:19.403Z,99461.22
2022-11-22T23:30:23.271Z,99470.62
2022-11-22T23:35:28.325Z,99470.69
2022-11-22T23:40:32.016Z,99473.16
2022-11-22T23:45:35.716Z,99480.94
2022-11-22T23:50:40.716Z,99474.94
2022-11-22T23:55:44.537Z,99480.84
